Terminal Aerodrome Forecast
Issued by NWS Paducah, KY

Home | Current Version | Previous Version | Text Only | Print | Product List | Glossary On
Versions: 1 2 3 4 5 6 7 8 9 10 11 12 13 14 15 16 17
599
FTUS43 KPAH 062329
TAFEVV
TAF
KEVV 062329Z 0700/0724 32010G15KT P6SM BKN015
     FM070300 32003KT P6SM BKN150
     FM072200 32004KT P6SM SCT100=

USA.gov is the U.S. government's official web portal to all federal, state and local government web resources and services.